createdAt,value
2018-06-27T00:01:05.254Z,99.90
2018-06-27T00:03:33.483Z,99.90
2018-06-27T00:06:01.758Z,99.90
2018-06-27T00:08:30.021Z,99.90
2018-06-27T00:10:58.244Z,99.90
2018-06-27T00:13:26.492Z,99.90
2018-06-27T00:15:54.778Z,99.90
2018-06-27T00:18:22.998Z,99.90
2018-06-27T00:20:51.251Z,99.90
2018-06-27T00:23:19.564Z,99.90
2018-06-27T00:25:47.786Z,99.90
2018-06-27T00:28:16.183Z,99.90
2018-06-27T00:30:44.404Z,99.90
2018-06-27T00:33:12.632Z,99.90
2018-06-27T00:35:40.867Z,99.90
2018-06-27T00:38:12.860Z,99.90
2018-06-27T00:40:41.206Z,99.90
2018-06-27T00:43:09.496Z,99.90
2018-06-27T00:45:37.741Z,99.90
2018-06-27T00:48:06.281Z,99.90
2018-06-27T00:50:34.548Z,99.90
2018-06-27T00:53:02.812Z,99.90
2018-06-27T00:55:31.226Z,99.90
2018-06-27T00:57:59.575Z,99.90
2018-06-27T01:00:27.881Z,99.90
2018-06-27T01:02:56.142Z,99.90
2018-06-27T01:05:24.373Z,99.90
2018-06-27T01:07:52.611Z,99.90
2018-06-27T01:10:20.843Z,99.90
2018-06-27T01:12:49.130Z,99.90
2018-06-27T01:15:17.349Z,99.90
2018-06-27T01:17:52.132Z,99.90
2018-06-27T01:20:20.431Z,99.90
2018-06-27T01:22:48.729Z,99.90
2018-06-27T01:25:16.952Z,99.90
2018-06-27T01:27:45.402Z,99.90
2018-06-27T01:30:13.640Z,99.90
2018-06-27T01:32:41.928Z,99.90
2018-06-27T01:35:10.205Z,99.90
2018-06-27T01:37:38.691Z,99.90
2018-06-27T01:40:06.926Z,99.90
2018-06-27T01:42:35.193Z,99.90
2018-06-27T01:45:03.473Z,99.90
2018-06-27T01:49:59.723Z,99.90
2018-06-27T01:52:28.316Z,99.90
2018-06-27T01:54:56.542Z,99.90
2018-06-27T01:57:24.784Z,99.90
2018-06-27T01:59:53.020Z,99.90
2018-06-27T02:02:21.276Z,99.90
2018-06-27T02:04:49.517Z,99.90
2018-06-27T02:07:17.780Z,99.90
2018-06-27T02:09:46.024Z,99.90
2018-06-27T02:14:42.266Z,99.90
2018-06-27T02:17:10.503Z,99.90
2018-06-27T02:19:38.757Z,99.90
2018-06-27T02:22:07.243Z,99.90
2018-06-27T02:24:35.513Z,99.90
2018-06-27T02:27:03.770Z,99.90
2018-06-27T02:29:32.007Z,99.90
2018-06-27T02:32:00.350Z,99.90
2018-06-27T02:34:28.583Z,99.90
2018-06-27T02:36:56.804Z,99.90
2018-06-27T02:39:25.043Z,99.90
2018-06-27T02:41:53.288Z,99.90
2018-06-27T02:44:21.540Z,99.90
2018-06-27T02:46:50.101Z,99.90
2018-06-27T02:49:18.380Z,99.90
2018-06-27T02:51:46.629Z,99.90
2018-06-27T02:54:14.874Z,99.90
2018-06-27T02:56:43.122Z,99.90
2018-06-27T02:59:11.387Z,99.90
2018-06-27T03:01:39.616Z,99.90
2018-06-27T03:04:07.850Z,99.90
2018-06-27T03:09:06.091Z,99.90
2018-06-27T03:11:34.358Z,99.90
2018-06-27T03:14:02.616Z,99.90
2018-06-27T03:16:30.872Z,99.90
2018-06-27T03:18:59.128Z,99.90
2018-06-27T03:21:27.380Z,99.90
2018-06-27T03:23:55.603Z,99.90
2018-06-27T03:26:23.857Z,99.90
2018-06-27T03:31:20.091Z,99.90
2018-06-27T03:33:48.400Z,99.90
2018-06-27T03:36:16.584Z,99.90
2018-06-27T03:38:44.833Z,99.90
2018-06-27T03:43:41.094Z,99.90
2018-06-27T03:46:09.324Z,99.90
2018-06-27T03:48:37.572Z,99.90
2018-06-27T03:51:05.912Z,99.90
2018-06-27T03:53:42.662Z,99.90
2018-06-27T03:56:11.893Z,99.90
2018-06-27T03:58:40.115Z,99.90
2018-06-27T04:01:10.092Z,99.90
2018-06-27T04:03:39.387Z,99.90
2018-06-27T04:06:08.258Z,99.90
2018-06-27T04:08:36.459Z,99.90
2018-06-27T04:11:04.728Z,99.90
2018-06-27T04:13:33.019Z,99.90
2018-06-27T04:16:01.480Z,99.90
2018-06-27T04:18:29.762Z,99.90
2018-06-27T04:20:58.203Z,99.90
2018-06-27T04:23:26.479Z,99.90
2018-06-27T04:25:54.702Z,99.90
2018-06-27T04:28:22.939Z,99.90
2018-06-27T04:30:51.194Z,99.90
2018-06-27T04:35:47.678Z,99.90
2018-06-27T04:38:16.217Z,99.90
2018-06-27T04:40:44.428Z,99.90
2018-06-27T04:43:12.728Z,99.90
2018-06-27T04:45:40.973Z,99.80
2018-06-27T04:48:09.399Z,99.10
2018-06-27T04:50:37.666Z,99.20
2018-06-27T04:53:05.920Z,99.20
2018-06-27T04:55:34.264Z,98.50
2018-06-27T04:58:03.958Z,98.00
2018-06-27T05:00:32.177Z,97.00
2018-06-27T05:03:00.469Z,96.60
2018-06-27T05:05:28.693Z,97.40
2018-06-27T05:07:56.944Z,97.20
2018-06-27T05:10:25.304Z,97.50
2018-06-27T05:12:53.581Z,98.00
2018-06-27T05:15:21.833Z,98.60
2018-06-27T05:17:50.108Z,99.10
2018-06-27T05:20:18.433Z,99.00
2018-06-27T05:25:14.684Z,99.30
2018-06-27T05:27:42.998Z,99.20
2018-06-27T05:30:11.156Z,98.90
2018-06-27T05:32:39.389Z,99.30
2018-06-27T05:35:07.694Z,98.80
2018-06-27T05:37:35.939Z,97.80
2018-06-27T05:40:04.434Z,97.80
2018-06-27T05:42:32.692Z,98.10
2018-06-27T05:45:00.915Z,98.30
2018-06-27T05:47:29.176Z,98.30
2018-06-27T05:49:57.469Z,97.00
2018-06-27T05:52:25.708Z,96.60
2018-06-27T05:54:59.324Z,96.40
2018-06-27T05:57:27.546Z,96.30
2018-06-27T05:59:55.830Z,96.80
2018-06-27T06:02:24.059Z,96.00
2018-06-27T06:04:52.333Z,95.30
2018-06-27T06:07:20.548Z,95.50
2018-06-27T06:09:48.806Z,95.30
2018-06-27T06:12:17.029Z,94.40
2018-06-27T06:14:45.266Z,93.90
2018-06-27T06:17:13.495Z,94.40
2018-06-27T06:19:41.766Z,94.20
2018-06-27T06:22:10.049Z,93.50
2018-06-27T06:24:40.640Z,93.20
2018-06-27T06:27:09.200Z,93.00
2018-06-27T06:29:37.562Z,93.10
2018-06-27T06:32:07.333Z,93.20
2018-06-27T06:34:35.551Z,93.20
2018-06-27T06:37:03.829Z,93.10
2018-06-27T06:39:32.089Z,93.10
2018-06-27T06:42:00.301Z,93.00
2018-06-27T06:44:28.556Z,91.80
2018-06-27T06:46:56.836Z,90.70
2018-06-27T06:49:25.077Z,90.60
2018-06-27T06:51:53.648Z,90.90
2018-06-27T06:54:22.667Z,89.30
2018-06-27T06:56:50.918Z,87.50
2018-06-27T06:59:19.516Z,86.60
2018-06-27T07:01:50.241Z,84.50
2018-06-27T07:04:20.435Z,80.80
2018-06-27T07:06:56.609Z,76.80
2018-06-27T07:09:32.264Z,75.10
2018-06-27T07:12:04.622Z,77.00
2018-06-27T07:14:32.981Z,77.30
2018-06-27T07:17:01.205Z,77.80
2018-06-27T07:19:29.441Z,74.20
2018-06-27T07:24:25.737Z,69.70
2018-06-27T07:26:53.986Z,69.20
2018-06-27T07:29:22.228Z,64.10
2018-06-27T07:31:50.635Z,62.60
2018-06-27T07:34:18.867Z,58.90
2018-06-27T07:36:47.241Z,53.90
2018-06-27T07:39:15.445Z,43.70
2018-06-27T07:41:43.698Z,35.50
2018-06-27T07:44:12.045Z,31.60
2018-06-27T07:46:40.307Z,34.40
2018-06-27T07:49:08.600Z,34.20
2018-06-27T07:51:36.845Z,34.70
2018-06-27T07:54:05.081Z,37.30
2018-06-27T07:56:33.367Z,40.60
2018-06-27T07:59:01.597Z,40.00
2018-06-27T08:01:29.855Z,43.80
2018-06-27T08:03:58.153Z,48.00
2018-06-27T08:06:30.646Z,49.10
2018-06-27T08:08:58.982Z,41.60
2018-06-27T08:11:27.251Z,37.30
2018-06-27T08:13:55.526Z,33.20
2018-06-27T08:16:23.759Z,28.60
2018-06-27T08:18:51.979Z,28.40
2018-06-27T08:21:20.220Z,29.30
2018-06-27T08:23:48.472Z,30.80
2018-06-27T08:28:44.780Z,37.90
2018-06-27T08:31:13.142Z,42.30
2018-06-27T08:33:41.380Z,42.10
2018-06-27T08:36:09.627Z,43.10
2018-06-27T08:38:37.901Z,44.30
2018-06-27T08:41:06.549Z,40.00
2018-06-27T08:43:34.842Z,39.60
2018-06-27T08:46:04.013Z,33.50
2018-06-27T08:48:32.261Z,34.60
2018-06-27T08:51:00.545Z,36.70
2018-06-27T08:53:28.795Z,34.10
2018-06-27T08:55:57.067Z,35.90
2018-06-27T09:00:53.304Z,39.10
2018-06-27T09:03:21.820Z,39.80
2018-06-27T09:05:50.080Z,34.30
2018-06-27T09:08:18.350Z,31.00
2018-06-27T09:13:14.683Z,31.20
2018-06-27T09:15:43.045Z,34.90
2018-06-27T09:18:11.298Z,31.50
2018-06-27T09:20:39.521Z,30.80
2018-06-27T09:23:07.742Z,34.60
2018-06-27T09:25:35.967Z,33.50
2018-06-27T09:28:04.405Z,29.10
2018-06-27T09:30:32.619Z,26.30
2018-06-27T09:33:00.839Z,26.00
2018-06-27T09:35:29.058Z,28.70
2018-06-27T09:37:57.403Z,29.20
2018-06-27T09:40:25.640Z,26.70
2018-06-27T09:42:53.855Z,25.60
2018-06-27T09:45:22.663Z,25.60
2018-06-27T09:47:50.931Z,28.60
2018-06-27T09:50:19.490Z,30.80
2018-06-27T09:52:47.849Z,31.60
2018-06-27T09:57:44.065Z,27.60
2018-06-27T10:00:17.616Z,26.60
2018-06-27T10:02:45.836Z,28.50
2018-06-27T10:05:14.084Z,26.90
2018-06-27T10:07:42.390Z,26.60
2018-06-27T10:10:10.629Z,26.20
2018-06-27T10:12:38.877Z,26.20
2018-06-27T10:15:07.122Z,25.50
2018-06-27T10:17:35.363Z,25.80
2018-06-27T10:22:31.706Z,26.90
2018-06-27T10:24:59.948Z,27.30
2018-06-27T10:27:28.184Z,28.20
2018-06-27T10:29:56.461Z,30.70
2018-06-27T10:32:24.809Z,34.10
2018-06-27T10:34:53.064Z,36.60
2018-06-27T10:37:21.316Z,35.30
2018-06-27T10:39:49.539Z,35.70
2018-06-27T10:44:45.832Z,37.20
2018-06-27T10:47:14.075Z,38.30
2018-06-27T10:49:42.320Z,40.40
2018-06-27T10:52:10.597Z,39.10
2018-06-27T10:54:44.178Z,38.90
2018-06-27T10:57:12.475Z,38.30
2018-06-27T11:02:08.742Z,41.30
2018-06-27T11:04:37.012Z,42.80
2018-06-27T11:09:33.279Z,39.20
2018-06-27T11:12:01.514Z,38.70
2018-06-27T11:16:57.933Z,41.20
2018-06-27T11:19:26.250Z,41.20
2018-06-27T11:21:54.536Z,42.40
2018-06-27T11:24:22.813Z,42.50
2018-06-27T11:26:51.100Z,42.50
2018-06-27T11:29:19.374Z,42.50
2018-06-27T11:31:47.607Z,42.70
2018-06-27T11:36:43.931Z,39.60
2018-06-27T11:39:13.532Z,39.60
2018-06-27T11:41:42.693Z,40.10
2018-06-27T11:44:11.053Z,38.50
2018-06-27T11:46:39.351Z,38.30
2018-06-27T11:49:07.741Z,38.60
2018-06-27T11:51:36.013Z,38.90
2018-06-27T11:54:04.278Z,39.50
2018-06-27T11:56:33.483Z,40.90
2018-06-27T11:59:02.304Z,39.20
2018-06-27T12:01:30.742Z,38.70
2018-06-27T12:03:59.353Z,38.40
2018-06-27T12:06:27.837Z,38.00
2018-06-27T12:08:56.148Z,37.40
2018-06-27T12:11:24.563Z,37.40
2018-06-27T12:13:52.779Z,36.40
2018-06-27T12:16:21.359Z,37.00
2018-06-27T12:18:49.568Z,37.10
2018-06-27T12:21:17.879Z,38.60
2018-06-27T12:23:46.154Z,38.40
2018-06-27T12:26:14.418Z,39.30
2018-06-27T12:28:42.674Z,40.90
2018-06-27T12:31:10.915Z,40.40
2018-06-27T12:33:39.134Z,38.80
2018-06-27T12:36:07.469Z,37.90
2018-06-27T12:38:37.797Z,37.50
2018-06-27T12:41:06.015Z,37.10
2018-06-27T12:43:34.275Z,37.50
2018-06-27T12:46:02.492Z,37.90
2018-06-27T12:48:30.813Z,38.40
2018-06-27T12:50:59.145Z,38.90
2018-06-27T12:53:27.524Z,40.90
2018-06-27T12:55:55.748Z,40.00
2018-06-27T12:58:24.368Z,39.10
2018-06-27T13:00:52.611Z,38.70
2018-06-27T13:03:20.942Z,38.50
2018-06-27T13:08:17.302Z,36.70
2018-06-27T13:10:45.516Z,37.30
2018-06-27T13:13:13.780Z,37.10
2018-06-27T13:15:42.027Z,38.10
2018-06-27T13:18:10.315Z,37.60
2018-06-27T13:23:06.584Z,39.50
2018-06-27T13:25:34.836Z,39.60
2018-06-27T13:28:03.096Z,40.80
2018-06-27T13:30:31.312Z,41.50
2018-06-27T13:32:59.548Z,39.10
2018-06-27T13:35:27.789Z,38.60
2018-06-27T13:37:56.008Z,37.70
2018-06-27T13:40:24.239Z,36.40
2018-06-27T13:42:52.488Z,36.10
2018-06-27T13:45:20.755Z,36.70
2018-06-27T13:47:49.000Z,37.80
2018-06-27T13:52:45.363Z,36.40
2018-06-27T13:55:13.587Z,36.80
2018-06-27T13:57:41.818Z,38.20
2018-06-27T14:00:10.107Z,38.90
2018-06-27T14:02:38.332Z,37.10
2018-06-27T14:07:34.713Z,37.80
2018-06-27T14:10:03.025Z,38.90
2018-06-27T14:12:31.279Z,37.40
2018-06-27T14:14:59.507Z,38.20
2018-06-27T14:17:27.775Z,39.90
2018-06-27T14:19:56.030Z,39.70
2018-06-27T14:22:24.484Z,41.00
2018-06-27T14:24:52.729Z,41.70
2018-06-27T14:27:21.012Z,40.20
2018-06-27T14:29:49.257Z,44.00
2018-06-27T14:34:45.568Z,40.00
2018-06-27T14:37:13.803Z,40.50
2018-06-27T14:39:42.079Z,40.70
2018-06-27T14:42:10.344Z,40.10
2018-06-27T14:44:38.639Z,37.30
2018-06-27T14:47:06.881Z,38.00
2018-06-27T14:49:35.142Z,37.50
2018-06-27T14:52:03.445Z,39.00
2018-06-27T14:54:32.717Z,41.40
2018-06-27T14:57:00.997Z,42.60
2018-06-27T14:59:29.278Z,42.40
2018-06-27T15:01:57.624Z,43.80
2018-06-27T15:04:25.887Z,43.90
2018-06-27T15:06:54.140Z,44.70
2018-06-27T15:09:22.440Z,42.90
2018-06-27T15:11:50.696Z,44.30
2018-06-27T15:14:22.612Z,43.70
2018-06-27T15:16:50.846Z,43.50
2018-06-27T15:19:19.325Z,43.60
2018-06-27T15:21:47.625Z,45.00
2018-06-27T15:24:16.112Z,42.30
2018-06-27T15:26:44.399Z,42.30
2018-06-27T15:31:40.624Z,44.00
2018-06-27T15:34:09.020Z,45.30
2018-06-27T15:36:37.291Z,45.40
2018-06-27T15:41:34.605Z,44.90
2018-06-27T15:44:02.824Z,45.60
2018-06-27T15:46:31.091Z,44.10
2018-06-27T15:48:59.411Z,44.70
2018-06-27T15:51:27.680Z,44.40
2018-06-27T15:53:55.923Z,43.50
2018-06-27T15:56:24.231Z,44.50
2018-06-27T15:58:52.484Z,43.80
2018-06-27T16:01:20.793Z,43.00
2018-06-27T16:03:49.060Z,42.90
2018-06-27T16:06:17.343Z,43.00
2018-06-27T16:08:45.744Z,42.50
2018-06-27T16:11:14.629Z,43.60
2018-06-27T16:13:42.796Z,41.70
2018-06-27T16:16:11.033Z,42.30
2018-06-27T16:18:39.264Z,41.70
2018-06-27T16:21:07.524Z,40.70
2018-06-27T16:23:35.776Z,40.60
2018-06-27T16:26:04.167Z,40.20
2018-06-27T16:31:00.521Z,42.10
2018-06-27T16:33:28.764Z,40.60
2018-06-27T16:35:57.045Z,39.50
2018-06-27T16:38:25.916Z,40.00
2018-06-27T16:40:54.222Z,41.10
2018-06-27T16:43:22.511Z,41.40
2018-06-27T16:45:50.736Z,41.20
2018-06-27T16:48:19.011Z,40.60
2018-06-27T16:53:15.276Z,40.80
2018-06-27T16:55:43.491Z,41.00
2018-06-27T16:58:11.774Z,41.10
2018-06-27T17:00:39.981Z,40.10
2018-06-27T17:03:08.288Z,40.40
2018-06-27T17:05:36.500Z,41.20
2018-06-27T17:08:04.823Z,41.90
2018-06-27T17:10:33.050Z,42.90
2018-06-27T17:13:01.447Z,42.90
2018-06-27T17:15:29.675Z,42.70
2018-06-27T17:17:57.982Z,43.50
2018-06-27T17:20:26.257Z,43.70
2018-06-27T17:22:54.492Z,44.80
2018-06-27T17:25:22.739Z,47.00
2018-06-27T17:27:51.021Z,48.00
2018-06-27T17:30:20.270Z,48.20
2018-06-27T17:32:48.860Z,49.20
2018-06-27T17:35:17.103Z,49.10
2018-06-27T17:37:45.887Z,48.80
2018-06-27T17:40:14.226Z,49.00
2018-06-27T17:42:42.767Z,48.80
2018-06-27T17:45:11.054Z,48.90
2018-06-27T17:50:07.804Z,50.90
2018-06-27T17:52:36.150Z,50.90
2018-06-27T17:55:04.658Z,51.50
2018-06-27T17:57:32.985Z,49.20
2018-06-27T18:00:01.472Z,51.30
2018-06-27T18:02:29.873Z,51.40
2018-06-27T18:04:58.201Z,53.20
2018-06-27T18:07:26.630Z,52.00
2018-06-27T18:09:55.320Z,53.90
2018-06-27T18:12:23.833Z,52.70
2018-06-27T18:14:52.177Z,54.00
2018-06-27T18:17:20.448Z,53.50
2018-06-27T18:19:49.073Z,54.80
2018-06-27T18:22:17.320Z,55.60
2018-06-27T18:24:45.547Z,54.40
2018-06-27T18:27:13.797Z,56.50
2018-06-27T18:32:10.081Z,56.70
2018-06-27T18:34:38.303Z,58.60
2018-06-27T18:37:06.520Z,59.00
2018-06-27T18:39:34.751Z,59.30
2018-06-27T18:42:02.971Z,59.90
2018-06-27T18:44:31.207Z,60.70
2018-06-27T18:46:59.449Z,63.10
2018-06-27T18:49:27.685Z,64.70
2018-06-27T18:51:56.064Z,64.40
2018-06-27T18:54:24.363Z,66.90
2018-06-27T18:56:52.584Z,69.50
2018-06-27T18:59:20.882Z,68.40
2018-06-27T19:04:17.105Z,71.20
2018-06-27T19:06:46.419Z,70.80
2018-06-27T19:09:14.693Z,70.80
2018-06-27T19:14:10.997Z,71.40
2018-06-27T19:16:39.280Z,72.80
2018-06-27T19:19:07.560Z,74.00
2018-06-27T19:21:35.902Z,73.90
2018-06-27T19:26:32.148Z,77.10
2018-06-27T19:29:00.396Z,77.20
2018-06-27T19:31:28.623Z,78.40
2018-06-27T19:33:56.912Z,78.60
2018-06-27T19:36:25.200Z,77.20
2018-06-27T19:38:53.420Z,78.60
2018-06-27T19:41:22.070Z,79.80
2018-06-27T19:43:50.195Z,79.90
2018-06-27T19:46:18.869Z,81.10
2018-06-27T19:48:47.097Z,81.50
2018-06-27T19:51:15.369Z,82.70
2018-06-27T19:53:43.613Z,83.50
2018-06-27T19:56:11.827Z,83.60
2018-06-27T19:58:40.084Z,85.40
2018-06-27T20:01:08.300Z,85.30
2018-06-27T20:03:36.509Z,87.30
2018-06-27T20:06:04.732Z,88.30
2018-06-27T20:08:32.939Z,89.20
2018-06-27T20:11:01.176Z,89.60
2018-06-27T20:13:29.408Z,90.20
2018-06-27T20:15:57.743Z,88.90
2018-06-27T20:18:25.992Z,90.10
2018-06-27T20:20:54.215Z,89.70
2018-06-27T20:23:23.097Z,88.10
2018-06-27T20:28:19.519Z,90.00
2018-06-27T20:30:47.764Z,90.30
2018-06-27T20:33:16.003Z,90.60
2018-06-27T20:35:44.265Z,90.00
2018-06-27T20:38:13.229Z,90.00
2018-06-27T20:40:41.580Z,90.00
2018-06-27T20:43:10.501Z,90.40
2018-06-27T20:45:38.766Z,90.60
2018-06-27T20:48:07.127Z,90.90
2018-06-27T20:50:35.474Z,91.80
2018-06-27T20:53:03.939Z,91.70
2018-06-27T20:55:32.181Z,92.20
2018-06-27T20:58:00.557Z,92.30
2018-06-27T21:00:28.851Z,92.20
2018-06-27T21:02:57.196Z,92.20
2018-06-27T21:05:25.426Z,92.40
2018-06-27T21:07:53.874Z,92.20
2018-06-27T21:10:22.066Z,92.20
2018-06-27T21:12:50.592Z,92.20
2018-06-27T21:15:18.812Z,92.20
2018-06-27T21:17:47.043Z,92.20
2018-06-27T21:20:15.283Z,92.10
2018-06-27T21:22:43.611Z,91.80
2018-06-27T21:25:11.863Z,91.60
2018-06-27T21:27:40.124Z,91.60
2018-06-27T21:30:08.800Z,91.10
2018-06-27T21:32:37.275Z,90.90
2018-06-27T21:35:06.071Z,90.70
2018-06-27T21:37:34.312Z,90.80
2018-06-27T21:40:02.835Z,91.10
2018-06-27T21:44:59.089Z,90.80
2018-06-27T21:49:55.344Z,91.40
2018-06-27T21:52:23.589Z,91.90
2018-06-27T21:54:51.859Z,92.30
2018-06-27T21:57:20.171Z,92.70
2018-06-27T21:59:48.501Z,92.80
2018-06-27T22:02:16.793Z,93.40
2018-06-27T22:04:45.036Z,93.70
2018-06-27T22:07:13.356Z,93.80
2018-06-27T22:09:41.606Z,94.30
2018-06-27T22:12:09.841Z,94.50
2018-06-27T22:14:38.130Z,94.60
2018-06-27T22:17:06.445Z,94.70
2018-06-27T22:19:34.725Z,94.90
2018-06-27T22:22:03.097Z,95.20
2018-06-27T22:24:31.330Z,95.40
2018-06-27T22:26:59.730Z,95.20
2018-06-27T22:29:28.414Z,95.40
2018-06-27T22:31:56.736Z,95.30
2018-06-27T22:36:53.319Z,95.60
2018-06-27T22:39:22.364Z,95.40
2018-06-27T22:41:50.790Z,95.30
2018-06-27T22:44:19.141Z,95.40
2018-06-27T22:46:47.857Z,95.40
2018-06-27T22:51:44.320Z,95.40
2018-06-27T22:54:12.865Z,95.20
2018-06-27T22:56:41.168Z,95.10
2018-06-27T22:59:09.780Z,95.30
2018-06-27T23:01:38.043Z,95.10
2018-06-27T23:04:07.124Z,95.00
2018-06-27T23:06:35.360Z,94.80
2018-06-27T23:09:04.683Z,94.70
2018-06-27T23:11:32.912Z,94.80
2018-06-27T23:16:29.148Z,95.10
2018-06-27T23:18:57.389Z,94.80
2018-06-27T23:21:25.634Z,94.80
2018-06-27T23:23:53.837Z,95.10
2018-06-27T23:26:22.216Z,95.00
2018-06-27T23:28:50.542Z,94.90
2018-06-27T23:31:18.879Z,95.00
2018-06-27T23:33:47.112Z,94.80
2018-06-27T23:36:15.373Z,94.60
2018-06-27T23:38:43.591Z,94.70
2018-06-27T23:41:11.849Z,94.60
2018-06-27T23:43:40.104Z,94.90
2018-06-27T23:46:08.352Z,95.00
2018-06-27T23:51:04.726Z,94.60
2018-06-27T23:53:32.969Z,94.80
2018-06-27T23:56:01.193Z,94.50
2018-06-27T23:58:29.431Z,94.60
